sensor_id;sensor_type;location;lat;lon;timestamp;P1;durP1;ratioP1;P2;durP2;ratioP2
13279;SDS011;6708;49.814;8.652;2023-11-19T00:00:22;0.70;;;0.70;;
13279;SDS011;6708;49.814;8.652;2023-11-19T00:02:53;0.70;;;0.70;;
13279;SDS011;6708;49.814;8.652;2023-11-19T00:05:21;0.80;;;0.80;;
13279;SDS011;6708;49.814;8.652;2023-11-19T00:07:50;0.63;;;0.63;;
13279;SDS011;6708;49.814;8.652;2023-11-19T00:10:19;0.60;;;0.60;;
13279;SDS011;6708;49.814;8.652;2023-11-19T00:12:47;0.73;;;0.73;;
13279;SDS011;6708;49.814;8.652;2023-11-19T00:15:17;0.70;;;0.70;;
13279;SDS011;6708;49.814;8.652;2023-11-19T00:17:46;0.47;;;0.47;;
13279;SDS011;6708;49.814;8.652;2023-11-19T00:20:18;0.80;;;0.80;;
13279;SDS011;6708;49.814;8.652;2023-11-19T00:22:47;0.73;;;0.73;;
13279;SDS011;6708;49.814;8.652;2023-11-19T00:25:16;0.60;;;0.60;;
13279;SDS011;6708;49.814;8.652;2023-11-19T00:27:45;0.60;;;0.60;;
13279;SDS011;6708;49.814;8.652;2023-11-19T00:30:13;0.70;;;0.70;;
13279;SDS011;6708;49.814;8.652;2023-11-19T00:32:42;0.70;;;0.70;;
13279;SDS011;6708;49.814;8.652;2023-11-19T00:35:11;0.60;;;0.60;;
13279;SDS011;6708;49.814;8.652;2023-11-19T00:37:42;0.50;;;0.50;;
13279;SDS011;6708;49.814;8.652;2023-11-19T00:40:13;0.60;;;0.60;;
13279;SDS011;6708;49.814;8.652;2023-11-19T00:42:43;0.70;;;0.70;;
13279;SDS011;6708;49.814;8.652;2023-11-19T00:45:12;0.53;;;0.40;;
13279;SDS011;6708;49.814;8.652;2023-11-19T00:47:41;0.40;;;0.40;;
13279;SDS011;6708;49.814;8.652;2023-11-19T00:50:10;0.70;;;0.70;;
13279;SDS011;6708;49.814;8.652;2023-11-19T00:52:38;0.60;;;0.60;;
13279;SDS011;6708;49.814;8.652;2023-11-19T00:55:10;0.90;;;0.90;;
13279;SDS011;6708;49.814;8.652;2023-11-19T00:57:39;0.80;;;0.80;;
13279;SDS011;6708;49.814;8.652;2023-11-19T01:00:08;0.47;;;0.47;;
13279;SDS011;6708;49.814;8.652;2023-11-19T01:02:43;0.73;;;0.73;;
13279;SDS011;6708;49.814;8.652;2023-11-19T01:05:14;0.80;;;0.80;;
13279;SDS011;6708;49.814;8.652;2023-11-19T01:07:49;0.70;;;0.70;;
13279;SDS011;6708;49.814;8.652;2023-11-19T01:10:19;1.00;;;0.93;;
13279;SDS011;6708;49.814;8.652;2023-11-19T01:12:47;0.60;;;0.60;;
13279;SDS011;6708;49.814;8.652;2023-11-19T01:15:15;0.80;;;0.70;;
13279;SDS011;6708;49.814;8.652;2023-11-19T01:17:45;0.40;;;0.40;;
13279;SDS011;6708;49.814;8.652;2023-11-19T01:20:13;0.50;;;0.50;;
13279;SDS011;6708;49.814;8.652;2023-11-19T01:22:42;0.60;;;0.60;;
13279;SDS011;6708;49.814;8.652;2023-11-19T01:25:13;0.40;;;0.40;;
13279;SDS011;6708;49.814;8.652;2023-11-19T01:27:43;0.43;;;0.43;;
13279;SDS011;6708;49.814;8.652;2023-11-19T01:30:12;0.60;;;0.60;;
13279;SDS011;6708;49.814;8.652;2023-11-19T01:32:41;0.40;;;0.40;;
13279;SDS011;6708;49.814;8.652;2023-11-19T01:35:09;1.90;;;0.70;;
13279;SDS011;6708;49.814;8.652;2023-11-19T01:37:38;0.50;;;0.50;;
13279;SDS011;6708;49.814;8.652;2023-11-19T01:40:07;0.40;;;0.40;;
13279;SDS011;6708;49.814;8.652;2023-11-19T01:42:39;0.53;;;0.53;;
13279;SDS011;6708;49.814;8.652;2023-11-19T01:45:08;0.40;;;0.40;;
13279;SDS011;6708;49.814;8.652;2023-11-19T01:47:37;0.30;;;0.30;;
13279;SDS011;6708;49.814;8.652;2023-11-19T01:50:06;0.40;;;0.40;;
13279;SDS011;6708;49.814;8.652;2023-11-19T01:52:35;0.10;;;0.10;;
13279;SDS011;6708;49.814;8.652;2023-11-19T01:55:05;0.30;;;0.23;;
13279;SDS011;6708;49.814;8.652;2023-11-19T01:57:35;0.10;;;0.10;;
13279;SDS011;6708;49.814;8.652;2023-11-19T02:00:09;0.27;;;0.27;;
13279;SDS011;6708;49.814;8.652;2023-11-19T02:02:39;2.27;;;0.27;;
13279;SDS011;6708;49.814;8.652;2023-11-19T02:05:08;0.40;;;0.40;;
13279;SDS011;6708;49.814;8.652;2023-11-19T02:07:37;0.50;;;0.30;;
13279;SDS011;6708;49.814;8.652;2023-11-19T02:10:05;0.30;;;0.30;;
13279;SDS011;6708;49.814;8.652;2023-11-19T02:12:38;0.43;;;0.43;;
13279;SDS011;6708;49.814;8.652;2023-11-19T02:15:11;0.30;;;0.30;;
13279;SDS011;6708;49.814;8.652;2023-11-19T02:17:39;0.20;;;0.20;;
13279;SDS011;6708;49.814;8.652;2023-11-19T02:20:09;0.20;;;0.20;;
13279;SDS011;6708;49.814;8.652;2023-11-19T02:22:40;0.17;;;0.17;;
13279;SDS011;6708;49.814;8.652;2023-11-19T02:25:11;0.17;;;0.17;;
13279;SDS011;6708;49.814;8.652;2023-11-19T02:27:58;0.20;;;0.20;;
13279;SDS011;6708;49.814;8.652;2023-11-19T02:30:27;0.10;;;0.10;;
13279;SDS011;6708;49.814;8.652;2023-11-19T02:32:57;0.03;;;0.03;;
13279;SDS011;6708;49.814;8.652;2023-11-19T02:35:31;0.20;;;0.20;;
13279;SDS011;6708;49.814;8.652;2023-11-19T02:38:00;0.20;;;0.10;;
13279;SDS011;6708;49.814;8.652;2023-11-19T02:40:29;0.13;;;0.13;;
13279;SDS011;6708;49.814;8.652;2023-11-19T02:43:00;0.10;;;0.10;;
13279;SDS011;6708;49.814;8.652;2023-11-19T02:45:30;0.00;;;0.00;;
13279;SDS011;6708;49.814;8.652;2023-11-19T02:47:59;0.20;;;0.20;;
13279;SDS011;6708;49.814;8.652;2023-11-19T02:50:31;0.20;;;0.20;;
13279;SDS011;6708;49.814;8.652;2023-11-19T02:52:59;0.20;;;0.20;;
13279;SDS011;6708;49.814;8.652;2023-11-19T02:55:28;0.00;;;0.00;;
13279;SDS011;6708;49.814;8.652;2023-11-19T02:58:05;0.13;;;0.10;;
13279;SDS011;6708;49.814;8.652;2023-11-19T03:00:45;0.10;;;0.10;;
13279;SDS011;6708;49.814;8.652;2023-11-19T03:03:19;0.10;;;0.10;;
13279;SDS011;6708;49.814;8.652;2023-11-19T03:05:51;0.17;;;0.17;;
13279;SDS011;6708;49.814;8.652;2023-11-19T03:08:20;0.57;;;0.33;;
13279;SDS011;6708;49.814;8.652;2023-11-19T03:10:48;0.00;;;0.00;;
13279;SDS011;6708;49.814;8.652;2023-11-19T03:13:20;0.20;;;0.10;;
13279;SDS011;6708;49.814;8.652;2023-11-19T03:15:48;0.23;;;0.23;;
13279;SDS011;6708;49.814;8.652;2023-11-19T03:18:17;0.10;;;0.10;;
13279;SDS011;6708;49.814;8.652;2023-11-19T03:20:46;0.17;;;0.17;;
13279;SDS011;6708;49.814;8.652;2023-11-19T03:23:14;0.10;;;0.10;;
13279;SDS011;6708;49.814;8.652;2023-11-19T03:25:45;0.07;;;0.07;;
13279;SDS011;6708;49.814;8.652;2023-11-19T03:28:14;0.10;;;0.10;;
13279;SDS011;6708;49.814;8.652;2023-11-19T03:30:45;0.20;;;0.20;;
13279;SDS011;6708;49.814;8.652;2023-11-19T03:33:13;0.20;;;0.20;;
13279;SDS011;6708;49.814;8.652;2023-11-19T03:35:41;0.17;;;0.17;;
13279;SDS011;6708;49.814;8.652;2023-11-19T03:38:12;0.10;;;0.10;;
13279;SDS011;6708;49.814;8.652;2023-11-19T03:40:41;0.10;;;0.10;;
13279;SDS011;6708;49.814;8.652;2023-11-19T03:43:10;1.03;;;0.43;;
13279;SDS011;6708;49.814;8.652;2023-11-19T03:45:38;0.20;;;0.20;;
13279;SDS011;6708;49.814;8.652;2023-11-19T03:48:11;0.20;;;0.20;;
13279;SDS011;6708;49.814;8.652;2023-11-19T03:50:41;0.13;;;0.13;;
13279;SDS011;6708;49.814;8.652;2023-11-19T03:53:11;0.10;;;0.10;;
13279;SDS011;6708;49.814;8.652;2023-11-19T03:55:40;2.20;;;0.30;;
13279;SDS011;6708;49.814;8.652;2023-11-19T03:58:09;0.20;;;0.20;;
13279;SDS011;6708;49.814;8.652;2023-11-19T04:00:37;0.27;;;0.27;;
13279;SDS011;6708;49.814;8.652;2023-11-19T04:03:06;0.30;;;0.30;;
13279;SDS011;6708;49.814;8.652;2023-11-19T04:05:37;0.20;;;0.20;;
13279;SDS011;6708;49.814;8.652;2023-11-19T04:08:05;0.20;;;0.20;;
13279;SDS011;6708;49.814;8.652;2023-11-19T04:10:34;0.50;;;0.30;;
13279;SDS011;6708;49.814;8.652;2023-11-19T04:13:02;0.20;;;0.20;;
13279;SDS011;6708;49.814;8.652;2023-11-19T04:15:30;0.20;;;0.20;;
13279;SDS011;6708;49.814;8.652;2023-11-19T04:17:59;1.83;;;0.20;;
13279;SDS011;6708;49.814;8.652;2023-11-19T04:20:27;0.20;;;0.20;;
13279;SDS011;6708;49.814;8.652;2023-11-19T04:22:59;0.40;;;0.40;;
13279;SDS011;6708;49.814;8.652;2023-11-19T04:25:28;0.30;;;0.30;;
13279;SDS011;6708;49.814;8.652;2023-11-19T04:27:56;0.43;;;0.40;;
13279;SDS011;6708;49.814;8.652;2023-11-19T04:30:26;0.47;;;0.47;;
13279;SDS011;6708;49.814;8.652;2023-11-19T04:32:56;0.30;;;0.30;;
13279;SDS011;6708;49.814;8.652;2023-11-19T04:35:25;0.50;;;0.50;;
13279;SDS011;6708;49.814;8.652;2023-11-19T04:37:54;0.60;;;0.50;;
13279;SDS011;6708;49.814;8.652;2023-11-19T04:40:25;0.47;;;0.47;;
13279;SDS011;6708;49.814;8.652;2023-11-19T04:42:53;0.47;;;0.47;;
13279;SDS011;6708;49.814;8.652;2023-11-19T04:45:22;0.70;;;0.70;;
13279;SDS011;6708;49.814;8.652;2023-11-19T04:47:50;0.50;;;0.50;;
13279;SDS011;6708;49.814;8.652;2023-11-19T04:50:19;0.93;;;0.50;;
13279;SDS011;6708;49.814;8.652;2023-11-19T04:52:47;0.70;;;0.70;;
13279;SDS011;6708;49.814;8.652;2023-11-19T04:55:15;0.70;;;0.70;;
13279;SDS011;6708;49.814;8.652;2023-11-19T04:57:46;0.83;;;0.83;;
13279;SDS011;6708;49.814;8.652;2023-11-19T05:00:15;1.10;;;0.80;;
13279;SDS011;6708;49.814;8.652;2023-11-19T05:02:43;1.20;;;1.10;;
13279;SDS011;6708;49.814;8.652;2023-11-19T05:05:12;1.87;;;1.13;;
13279;SDS011;6708;49.814;8.652;2023-11-19T05:07:40;1.50;;;0.83;;
13279;SDS011;6708;49.814;8.652;2023-11-19T05:10:09;0.93;;;0.90;;
13279;SDS011;6708;49.814;8.652;2023-11-19T05:12:37;0.73;;;0.73;;
13279;SDS011;6708;49.814;8.652;2023-11-19T05:15:09;1.00;;;1.00;;
13279;SDS011;6708;49.814;8.652;2023-11-19T05:17:39;0.93;;;0.90;;
13279;SDS011;6708;49.814;8.652;2023-11-19T05:20:08;1.20;;;1.10;;
13279;SDS011;6708;49.814;8.652;2023-11-19T05:22:38;0.90;;;0.90;;
13279;SDS011;6708;49.814;8.652;2023-11-19T05:25:07;0.90;;;0.90;;
13279;SDS011;6708;49.814;8.652;2023-11-19T05:27:36;0.83;;;0.80;;
13279;SDS011;6708;49.814;8.652;2023-11-19T05:30:05;1.23;;;1.23;;
13279;SDS011;6708;49.814;8.652;2023-11-19T05:32:37;0.93;;;0.93;;
13279;SDS011;6708;49.814;8.652;2023-11-19T05:35:06;1.07;;;1.07;;
13279;SDS011;6708;49.814;8.652;2023-11-19T05:37:36;1.53;;;0.90;;
13279;SDS011;6708;49.814;8.652;2023-11-19T05:40:05;0.50;;;0.50;;
13279;SDS011;6708;49.814;8.652;2023-11-19T05:42:39;0.60;;;0.60;;
13279;SDS011;6708;49.814;8.652;2023-11-19T05:45:11;0.70;;;0.70;;
13279;SDS011;6708;49.814;8.652;2023-11-19T05:47:40;0.70;;;0.70;;
13279;SDS011;6708;49.814;8.652;2023-11-19T05:50:09;0.50;;;0.50;;
13279;SDS011;6708;49.814;8.652;2023-11-19T05:52:38;0.70;;;0.70;;
13279;SDS011;6708;49.814;8.652;2023-11-19T05:55:07;0.60;;;0.57;;
13279;SDS011;6708;49.814;8.652;2023-11-19T05:57:39;0.50;;;0.50;;
13279;SDS011;6708;49.814;8.652;2023-11-19T06:00:10;0.87;;;0.87;;
13279;SDS011;6708;49.814;8.652;2023-11-19T06:02:40;0.73;;;0.73;;
13279;SDS011;6708;49.814;8.652;2023-11-19T06:05:09;1.27;;;0.70;;
13279;SDS011;6708;49.814;8.652;2023-11-19T06:07:37;0.73;;;0.73;;
13279;SDS011;6708;49.814;8.652;2023-11-19T06:10:06;0.67;;;0.67;;
13279;SDS011;6708;49.814;8.652;2023-11-19T06:12:36;0.97;;;0.97;;
13279;SDS011;6708;49.814;8.652;2023-11-19T06:15:06;0.70;;;0.70;;
13279;SDS011;6708;49.814;8.652;2023-11-19T06:17:38;1.00;;;0.90;;
13279;SDS011;6708;49.814;8.652;2023-11-19T06:20:08;0.87;;;0.77;;
13279;SDS011;6708;49.814;8.652;2023-11-19T06:22:37;0.90;;;0.90;;
13279;SDS011;6708;49.814;8.652;2023-11-19T06:25:06;0.90;;;0.90;;
13279;SDS011;6708;49.814;8.652;2023-11-19T06:27:34;1.17;;;1.17;;
13279;SDS011;6708;49.814;8.652;2023-11-19T06:30:04;1.00;;;1.00;;
13279;SDS011;6708;49.814;8.652;2023-11-19T06:32:37;1.00;;;1.00;;
13279;SDS011;6708;49.814;8.652;2023-11-19T06:35:06;0.97;;;0.90;;
13279;SDS011;6708;49.814;8.652;2023-11-19T06:37:35;1.10;;;1.10;;
13279;SDS011;6708;49.814;8.652;2023-11-19T06:40:04;0.80;;;0.80;;
13279;SDS011;6708;49.814;8.652;2023-11-19T06:42:34;2.93;;;0.80;;
13279;SDS011;6708;49.814;8.652;2023-11-19T06:45:04;0.73;;;0.73;;
13279;SDS011;6708;49.814;8.652;2023-11-19T06:47:32;1.00;;;1.00;;
13279;SDS011;6708;49.814;8.652;2023-11-19T06:50:04;0.90;;;0.90;;
13279;SDS011;6708;49.814;8.652;2023-11-19T06:52:34;0.60;;;0.60;;
13279;SDS011;6708;49.814;8.652;2023-11-19T06:55:03;1.57;;;1.07;;
13279;SDS011;6708;49.814;8.652;2023-11-19T06:57:33;1.80;;;1.00;;
13279;SDS011;6708;49.814;8.652;2023-11-19T07:00:02;1.00;;;1.00;;
13279;SDS011;6708;49.814;8.652;2023-11-19T07:02:31;0.80;;;0.80;;
13279;SDS011;6708;49.814;8.652;2023-11-19T07:04:59;1.20;;;1.20;;
13279;SDS011;6708;49.814;8.652;2023-11-19T07:07:32;1.27;;;1.17;;
13279;SDS011;6708;49.814;8.652;2023-11-19T07:10:01;1.67;;;1.00;;
13279;SDS011;6708;49.814;8.652;2023-11-19T07:12:32;1.13;;;1.10;;
13279;SDS011;6708;49.814;8.652;2023-11-19T07:15:01;1.00;;;1.00;;
13279;SDS011;6708;49.814;8.652;2023-11-19T07:17:29;1.13;;;1.03;;
13279;SDS011;6708;49.814;8.652;2023-11-19T07:19:58;0.70;;;0.70;;
13279;SDS011;6708;49.814;8.652;2023-11-19T07:22:27;0.73;;;0.73;;
13279;SDS011;6708;49.814;8.652;2023-11-19T07:24:59;0.70;;;0.70;;
13279;SDS011;6708;49.814;8.652;2023-11-19T07:27:27;1.37;;;0.70;;
13279;SDS011;6708;49.814;8.652;2023-11-19T07:29:56;0.60;;;0.60;;
13279;SDS011;6708;49.814;8.652;2023-11-19T07:32:24;0.77;;;0.77;;
13279;SDS011;6708;49.814;8.652;2023-11-19T07:34:53;0.60;;;0.60;;
13279;SDS011;6708;49.814;8.652;2023-11-19T07:37:21;1.00;;;0.90;;
13279;SDS011;6708;49.814;8.652;2023-11-19T07:39:50;2.97;;;0.57;;
13279;SDS011;6708;49.814;8.652;2023-11-19T07:42:21;1.67;;;0.80;;
13279;SDS011;6708;49.814;8.652;2023-11-19T07:44:49;0.30;;;0.30;;
13279;SDS011;6708;49.814;8.652;2023-11-19T07:47:19;0.70;;;0.70;;
13279;SDS011;6708;49.814;8.652;2023-11-19T07:49:48;0.50;;;0.50;;
13279;SDS011;6708;49.814;8.652;2023-11-19T07:52:18;0.33;;;0.33;;
13279;SDS011;6708;49.814;8.652;2023-11-19T07:54:46;0.40;;;0.40;;
13279;SDS011;6708;49.814;8.652;2023-11-19T07:57:14;0.67;;;0.57;;
13279;SDS011;6708;49.814;8.652;2023-11-19T07:59:46;1.13;;;0.60;;
13279;SDS011;6708;49.814;8.652;2023-11-19T08:02:14;0.60;;;0.60;;
13279;SDS011;6708;49.814;8.652;2023-11-19T08:04:43;0.60;;;0.60;;
13279;SDS011;6708;49.814;8.652;2023-11-19T08:07:15;0.60;;;0.60;;
13279;SDS011;6708;49.814;8.652;2023-11-19T08:09:44;0.53;;;0.53;;
13279;SDS011;6708;49.814;8.652;2023-11-19T08:12:13;0.30;;;0.30;;
13279;SDS011;6708;49.814;8.652;2023-11-19T08:14:42;0.40;;;0.40;;
13279;SDS011;6708;49.814;8.652;2023-11-19T08:17:14;0.30;;;0.30;;
13279;SDS011;6708;49.814;8.652;2023-11-19T08:19:43;0.33;;;0.33;;
13279;SDS011;6708;49.814;8.652;2023-11-19T08:22:11;0.77;;;0.77;;
13279;SDS011;6708;49.814;8.652;2023-11-19T08:24:39;0.87;;;0.40;;
13279;SDS011;6708;49.814;8.652;2023-11-19T08:27:08;0.43;;;0.43;;
13279;SDS011;6708;49.814;8.652;2023-11-19T08:29:36;0.50;;;0.40;;
13279;SDS011;6708;49.814;8.652;2023-11-19T08:32:08;0.60;;;0.60;;
13279;SDS011;6708;49.814;8.652;2023-11-19T08:34:37;0.53;;;0.50;;
13279;SDS011;6708;49.814;8.652;2023-11-19T08:37:05;0.47;;;0.40;;
13279;SDS011;6708;49.814;8.652;2023-11-19T08:39:33;1.10;;;0.43;;
13279;SDS011;6708;49.814;8.652;2023-11-19T08:42:03;0.97;;;0.50;;
13279;SDS011;6708;49.814;8.652;2023-11-19T08:44:31;0.50;;;0.40;;
13279;SDS011;6708;49.814;8.652;2023-11-19T08:47:00;0.67;;;0.67;;
13279;SDS011;6708;49.814;8.652;2023-11-19T08:49:32;1.33;;;0.60;;
13279;SDS011;6708;49.814;8.652;2023-11-19T08:52:00;0.40;;;0.40;;
13279;SDS011;6708;49.814;8.652;2023-11-19T08:54:30;0.90;;;0.70;;
13279;SDS011;6708;49.814;8.652;2023-11-19T08:56:59;0.97;;;0.57;;
13279;SDS011;6708;49.814;8.652;2023-11-19T08:59:28;1.00;;;0.43;;
13279;SDS011;6708;49.814;8.652;2023-11-19T09:01:56;1.07;;;0.50;;
13279;SDS011;6708;49.814;8.652;2023-11-19T09:04:25;0.40;;;0.40;;
13279;SDS011;6708;49.814;8.652;2023-11-19T09:06:57;0.60;;;0.60;;
13279;SDS011;6708;49.814;8.652;2023-11-19T09:09:25;0.50;;;0.50;;
13279;SDS011;6708;49.814;8.652;2023-11-19T09:11:54;0.87;;;0.40;;
13279;SDS011;6708;49.814;8.652;2023-11-19T09:14:23;1.40;;;0.47;;
13279;SDS011;6708;49.814;8.652;2023-11-19T09:16:51;0.83;;;0.53;;
13279;SDS011;6708;49.814;8.652;2023-11-19T09:19:23;0.47;;;0.47;;
13279;SDS011;6708;49.814;8.652;2023-11-19T09:21:52;0.50;;;0.50;;
13279;SDS011;6708;49.814;8.652;2023-11-19T09:24:23;0.73;;;0.40;;
13279;SDS011;6708;49.814;8.652;2023-11-19T09:26:52;0.40;;;0.40;;
13279;SDS011;6708;49.814;8.652;2023-11-19T09:29:21;0.30;;;0.30;;
13279;SDS011;6708;49.814;8.652;2023-11-19T09:31:50;0.70;;;0.70;;
13279;SDS011;6708;49.814;8.652;2023-11-19T09:34:19;0.73;;;0.73;;
13279;SDS011;6708;49.814;8.652;2023-11-19T09:36:47;1.90;;;0.87;;
13279;SDS011;6708;49.814;8.652;2023-11-19T09:39:16;0.57;;;0.57;;
13279;SDS011;6708;49.814;8.652;2023-11-19T09:41:48;1.60;;;1.53;;
13279;SDS011;6708;49.814;8.652;2023-11-19T09:44:17;0.60;;;0.60;;
13279;SDS011;6708;49.814;8.652;2023-11-19T09:46:46;0.70;;;0.70;;
13279;SDS011;6708;49.814;8.652;2023-11-19T09:49:15;0.93;;;0.87;;
13279;SDS011;6708;49.814;8.652;2023-11-19T09:51:46;1.17;;;1.00;;
13279;SDS011;6708;49.814;8.652;2023-11-19T09:54:14;0.77;;;0.77;;
13279;SDS011;6708;49.814;8.652;2023-11-19T09:56:43;0.97;;;0.93;;
13279;SDS011;6708;49.814;8.652;2023-11-19T09:59:14;0.77;;;0.77;;
13279;SDS011;6708;49.814;8.652;2023-11-19T10:01:44;0.97;;;0.97;;
13279;SDS011;6708;49.814;8.652;2023-11-19T10:04:14;0.97;;;0.83;;
13279;SDS011;6708;49.814;8.652;2023-11-19T10:06:44;2.60;;;2.40;;
13279;SDS011;6708;49.814;8.652;2023-11-19T10:09:12;3.40;;;3.13;;
13279;SDS011;6708;49.814;8.652;2023-11-19T10:11:41;1.83;;;1.40;;
13279;SDS011;6708;49.814;8.652;2023-11-19T10:14:10;1.37;;;1.27;;
13279;SDS011;6708;49.814;8.652;2023-11-19T10:16:41;0.90;;;0.90;;
13279;SDS011;6708;49.814;8.652;2023-11-19T10:19:12;1.93;;;1.53;;
13279;SDS011;6708;49.814;8.652;2023-11-19T10:21:48;1.80;;;1.27;;
13279;SDS011;6708;49.814;8.652;2023-11-19T10:24:17;0.73;;;0.60;;
13279;SDS011;6708;49.814;8.652;2023-11-19T10:27:00;0.63;;;0.63;;
13279;SDS011;6708;49.814;8.652;2023-11-19T10:29:29;2.87;;;0.80;;
13279;SDS011;6708;49.814;8.652;2023-11-19T10:32:01;0.80;;;0.80;;
13279;SDS011;6708;49.814;8.652;2023-11-19T10:34:30;1.03;;;0.90;;
13279;SDS011;6708;49.814;8.652;2023-11-19T10:36:59;0.43;;;0.43;;
13279;SDS011;6708;49.814;8.652;2023-11-19T10:39:32;0.63;;;0.40;;
13279;SDS011;6708;49.814;8.652;2023-11-19T10:42:20;1.37;;;0.77;;
13279;SDS011;6708;49.814;8.652;2023-11-19T10:44:49;2.97;;;0.60;;
13279;SDS011;6708;49.814;8.652;2023-11-19T10:47:21;0.73;;;0.50;;
13279;SDS011;6708;49.814;8.652;2023-11-19T10:49:51;1.23;;;0.43;;
13279;SDS011;6708;49.814;8.652;2023-11-19T10:52:20;1.20;;;0.87;;
13279;SDS011;6708;49.814;8.652;2023-11-19T10:54:50;0.20;;;0.20;;
13279;SDS011;6708;49.814;8.652;2023-11-19T10:57:19;0.77;;;0.70;;
13279;SDS011;6708;49.814;8.652;2023-11-19T10:59:49;1.70;;;0.40;;
13279;SDS011;6708;49.814;8.652;2023-11-19T11:02:24;0.97;;;0.60;;
13279;SDS011;6708;49.814;8.652;2023-11-19T11:04:53;0.40;;;0.40;;
13279;SDS011;6708;49.814;8.652;2023-11-19T11:07:22;0.40;;;0.40;;
13279;SDS011;6708;49.814;8.652;2023-11-19T11:09:53;0.20;;;0.20;;
13279;SDS011;6708;49.814;8.652;2023-11-19T11:12:24;0.40;;;0.40;;
13279;SDS011;6708;49.814;8.652;2023-11-19T11:14:53;0.83;;;0.70;;
13279;SDS011;6708;49.814;8.652;2023-11-19T11:17:26;1.53;;;0.50;;
13279;SDS011;6708;49.814;8.652;2023-11-19T11:19:56;0.43;;;0.37;;
13279;SDS011;6708;49.814;8.652;2023-11-19T11:22:24;0.27;;;0.27;;
13279;SDS011;6708;49.814;8.652;2023-11-19T11:25:08;0.87;;;0.63;;
13279;SDS011;6708;49.814;8.652;2023-11-19T11:27:47;1.20;;;0.70;;
13279;SDS011;6708;49.814;8.652;2023-11-19T11:30:20;0.87;;;0.67;;
13279;SDS011;6708;49.814;8.652;2023-11-19T11:32:58;1.20;;;0.67;;
13279;SDS011;6708;49.814;8.652;2023-11-19T11:35:35;1.87;;;1.07;;
13279;SDS011;6708;49.814;8.652;2023-11-19T11:38:11;1.20;;;0.43;;
13279;SDS011;6708;49.814;8.652;2023-11-19T11:40:42;1.10;;;0.60;;
13279;SDS011;6708;49.814;8.652;2023-11-19T11:49:29;1.27;;;0.70;;
13279;SDS011;6708;49.814;8.652;2023-11-19T11:52:00;0.80;;;0.80;;
13279;SDS011;6708;49.814;8.652;2023-11-19T11:54:29;0.80;;;0.80;;
13279;SDS011;6708;49.814;8.652;2023-11-19T11:57:03;0.60;;;0.60;;
13279;SDS011;6708;49.814;8.652;2023-11-19T11:59:47;0.70;;;0.70;;
13279;SDS011;6708;49.814;8.652;2023-11-19T12:02:16;1.73;;;0.80;;
13279;SDS011;6708;49.814;8.652;2023-11-19T12:04:49;0.63;;;0.50;;
13279;SDS011;6708;49.814;8.652;2023-11-19T12:07:19;2.33;;;0.60;;
13279;SDS011;6708;49.814;8.652;2023-11-19T12:09:51;0.53;;;0.53;;
13279;SDS011;6708;49.814;8.652;2023-11-19T12:12:25;2.43;;;1.03;;
13279;SDS011;6708;49.814;8.652;2023-11-19T12:15:01;1.57;;;0.67;;
13279;SDS011;6708;49.814;8.652;2023-11-19T12:17:40;1.73;;;0.60;;
13279;SDS011;6708;49.814;8.652;2023-11-19T12:20:13;1.77;;;0.70;;
13279;SDS011;6708;49.814;8.652;2023-11-19T12:22:42;1.50;;;0.77;;
13279;SDS011;6708;49.814;8.652;2023-11-19T12:25:12;3.83;;;0.67;;
13279;SDS011;6708;49.814;8.652;2023-11-19T12:27:42;1.17;;;0.53;;
13279;SDS011;6708;49.814;8.652;2023-11-19T12:30:12;1.43;;;1.00;;
13279;SDS011;6708;49.814;8.652;2023-11-19T12:32:41;2.43;;;1.10;;
13279;SDS011;6708;49.814;8.652;2023-11-19T12:35:12;1.00;;;0.80;;
13279;SDS011;6708;49.814;8.652;2023-11-19T12:37:41;2.70;;;1.00;;
13279;SDS011;6708;49.814;8.652;2023-11-19T12:40:11;7.03;;;1.50;;
13279;SDS011;6708;49.814;8.652;2023-11-19T12:42:42;1.70;;;0.77;;
13279;SDS011;6708;49.814;8.652;2023-11-19T12:45:11;2.80;;;1.10;;
13279;SDS011;6708;49.814;8.652;2023-11-19T12:47:42;3.73;;;1.37;;
13279;SDS011;6708;49.814;8.652;2023-11-19T12:50:15;1.47;;;0.93;;
13279;SDS011;6708;49.814;8.652;2023-11-19T12:52:54;5.20;;;1.27;;
13279;SDS011;6708;49.814;8.652;2023-11-19T12:55:24;2.17;;;0.90;;
13279;SDS011;6708;49.814;8.652;2023-11-19T12:57:53;2.67;;;1.10;;
13279;SDS011;6708;49.814;8.652;2023-11-19T13:00:23;3.53;;;1.33;;
13279;SDS011;6708;49.814;8.652;2023-11-19T13:02:53;2.17;;;1.30;;
13279;SDS011;6708;49.814;8.652;2023-11-19T13:05:26;1.30;;;0.97;;
13279;SDS011;6708;49.814;8.652;2023-11-19T13:07:59;4.03;;;1.37;;
13279;SDS011;6708;49.814;8.652;2023-11-19T13:10:30;4.00;;;1.27;;
13279;SDS011;6708;49.814;8.652;2023-11-19T13:13:00;4.93;;;1.57;;
13279;SDS011;6708;49.814;8.652;2023-11-19T13:15:29;2.10;;;0.80;;
13279;SDS011;6708;49.814;8.652;2023-11-19T13:17:58;6.00;;;1.20;;
13279;SDS011;6708;49.814;8.652;2023-11-19T13:20:29;1.13;;;0.93;;
13279;SDS011;6708;49.814;8.652;2023-11-19T13:22:59;3.00;;;1.13;;
13279;SDS011;6708;49.814;8.652;2023-11-19T13:25:30;3.67;;;1.63;;
13279;SDS011;6708;49.814;8.652;2023-11-19T13:27:59;2.30;;;1.30;;
13279;SDS011;6708;49.814;8.652;2023-11-19T13:30:27;3.87;;;0.80;;
13279;SDS011;6708;49.814;8.652;2023-11-19T13:32:56;2.70;;;0.90;;
13279;SDS011;6708;49.814;8.652;2023-11-19T13:35:26;3.83;;;1.17;;
13279;SDS011;6708;49.814;8.652;2023-11-19T13:37:57;4.30;;;0.90;;
13279;SDS011;6708;49.814;8.652;2023-11-19T13:40:26;4.43;;;1.33;;
13279;SDS011;6708;49.814;8.652;2023-11-19T13:42:54;3.57;;;0.83;;
13279;SDS011;6708;49.814;8.652;2023-11-19T13:45:23;12.10;;;1.53;;
13279;SDS011;6708;49.814;8.652;2023-11-19T13:47:51;3.00;;;1.00;;
13279;SDS011;6708;49.814;8.652;2023-11-19T13:50:20;2.67;;;1.30;;
13279;SDS011;6708;49.814;8.652;2023-11-19T13:52:49;5.50;;;1.30;;
13279;SDS011;6708;49.814;8.652;2023-11-19T13:55:20;2.23;;;1.10;;
13279;SDS011;6708;49.814;8.652;2023-11-19T13:57:48;3.17;;;1.30;;
13279;SDS011;6708;49.814;8.652;2023-11-19T14:00:17;2.77;;;1.20;;
13279;SDS011;6708;49.814;8.652;2023-11-19T14:02:48;2.33;;;1.30;;
13279;SDS011;6708;49.814;8.652;2023-11-19T14:05:17;2.43;;;1.53;;
13279;SDS011;6708;49.814;8.652;2023-11-19T14:07:45;3.80;;;1.20;;
13279;SDS011;6708;49.814;8.652;2023-11-19T14:10:14;3.10;;;1.47;;
13279;SDS011;6708;49.814;8.652;2023-11-19T14:12:45;1.60;;;0.70;;
13279;SDS011;6708;49.814;8.652;2023-11-19T14:15:15;1.80;;;0.70;;
13279;SDS011;6708;49.814;8.652;2023-11-19T14:17:43;1.57;;;0.70;;
13279;SDS011;6708;49.814;8.652;2023-11-19T14:20:12;3.43;;;0.90;;
13279;SDS011;6708;49.814;8.652;2023-11-19T14:22:43;3.83;;;1.10;;
13279;SDS011;6708;49.814;8.652;2023-11-19T14:25:13;2.27;;;0.83;;
13279;SDS011;6708;49.814;8.652;2023-11-19T14:27:42;3.67;;;1.27;;
13279;SDS011;6708;49.814;8.652;2023-11-19T14:30:14;2.47;;;1.13;;
13279;SDS011;6708;49.814;8.652;2023-11-19T14:32:43;1.27;;;0.90;;
13279;SDS011;6708;49.814;8.652;2023-11-19T14:35:13;2.53;;;0.90;;
13279;SDS011;6708;49.814;8.652;2023-11-19T14:37:42;2.17;;;1.03;;
13279;SDS011;6708;49.814;8.652;2023-11-19T14:40:11;3.53;;;1.43;;
13279;SDS011;6708;49.814;8.652;2023-11-19T14:42:39;1.10;;;0.93;;
13279;SDS011;6708;49.814;8.652;2023-11-19T14:45:11;2.27;;;1.17;;
13279;SDS011;6708;49.814;8.652;2023-11-19T14:47:39;2.20;;;0.90;;
13279;SDS011;6708;49.814;8.652;2023-11-19T14:50:08;1.80;;;1.07;;
13279;SDS011;6708;49.814;8.652;2023-11-19T14:52:37;2.90;;;0.97;;
13279;SDS011;6708;49.814;8.652;2023-11-19T14:55:06;2.77;;;1.30;;
13279;SDS011;6708;49.814;8.652;2023-11-19T14:57:36;2.77;;;1.20;;
13279;SDS011;6708;49.814;8.652;2023-11-19T15:00:07;5.87;;;1.40;;
13279;SDS011;6708;49.814;8.652;2023-11-19T15:02:41;2.80;;;1.07;;
13279;SDS011;6708;49.814;8.652;2023-11-19T15:05:10;3.33;;;1.43;;
13279;SDS011;6708;49.814;8.652;2023-11-19T15:07:38;2.03;;;1.33;;
13279;SDS011;6708;49.814;8.652;2023-11-19T15:10:07;2.00;;;1.13;;
13279;SDS011;6708;49.814;8.652;2023-11-19T15:12:38;1.50;;;1.00;;
13279;SDS011;6708;49.814;8.652;2023-11-19T15:15:07;4.43;;;1.37;;
13279;SDS011;6708;49.814;8.652;2023-11-19T15:17:41;4.53;;;1.63;;
13279;SDS011;6708;49.814;8.652;2023-11-19T15:20:10;2.00;;;1.13;;
13279;SDS011;6708;49.814;8.652;2023-11-19T15:22:43;3.20;;;1.40;;